Ulsteinvik  Ulsteinvik


Beaufortskalaen  Beaufortskalaen


Air quality index  Air quality index


Nedbørsradar more information rain snow radar


Ingen spesiell oppmerksomhet om været er nødvendig.    Det er ingen advarsler

Nære METAR rapporter

   
ENAL - Ålesund
oppdatert: 24-08-2019 16:20
Delvis Skyet  
Delvis Skyet  
   Vind: SØ 2.1 m/s
Vind: SØ 2.1 m/s
Temperatur: 18°C
Duggpunkt: 15°C
Fuktighet: 83%
Barometer: 1019 hPa
Skyer: Delvis Skyet
Sikt: More than 10 km
Skydetaljer: Delvis Skyet 1493.5 m
ENAL 241420Z 13004KT 9999 SCT049 18/15 Q1019
ENOV - Ørsta
oppdatert: 24-08-2019 15:50
Regn i nærheten, For det meste skyet  
Regn i nærheten, For det meste skyet  
   Vind: varierer 1.5 m/s
Vind: varierer 1.5 m/s
Temperatur: 20°C
Duggpunkt: 13°C
Fuktighet: 64%
Barometer: 1020 hPa
Skyer: For det meste skyet
Sikt: More than 10 km
Skydetaljer: få skyer 1371.6 m,
For det meste skyet 1524 m
ENOV 241350Z VRB03KT 9999 VCSH FEW045 BKN050 20/13 Q1020 RMK WIND 2175FT 16016KT
ENML - Tafjorden
oppdatert: 24-08-2019 16:20
For det meste skyet  
For det meste skyet  
   Vind: Øst 1.5 m/s
Vind: Øst 1.5 m/s
Temperatur: 17°C
Duggpunkt: 14°C
Fuktighet: 83%
Barometer: 1020 hPa
Skyer: For det meste skyet
Sikt: More than 10 km
Skydetaljer: få skyer 182.9 m,
Delvis Skyet 1524 m,
For det meste skyet 4267.2 m
ENML 241420Z 09003KT 060V160 9999 FEW006 SCT050 BKN140 17/14 Q1020
ENML - Molde
oppdatert: 24-08-2019 16:20
For det meste skyet  
For det meste skyet  
   Vind: Øst 1.5 m/s
Vind: Øst 1.5 m/s
Temperatur: 17°C
Duggpunkt: 14°C
Fuktighet: 83%
Barometer: 1020 hPa
Skyer: For det meste skyet
Sikt: More than 10 km
Skydetaljer: få skyer 182.9 m,
Delvis Skyet 1524 m,
For det meste skyet 4267.2 m
ENML 241420Z 09003KT 060V160 9999 FEW006 SCT050 BKN140 17/14 Q1020
ENFL - Florø
oppdatert: 24-08-2019 16:20
Overskyet  
Overskyet  
   Vind: Sør 8.2 m/s
Vind: Sør 8.2 m/s
Temperatur: 17°C
Duggpunkt: 14°C
Fuktighet: 83%
Barometer: 1021 hPa
Skyer: Overskyet
Sikt: 10 km
Skydetaljer: Overskyet 731.5 m
ENFL 241420Z AUTO 19016KT 9999NDV OVC024/// 17/14 Q1021
ENVA - Trondheim
oppdatert: 24-08-2019 16:20
For det meste skyet  
For det meste skyet  
   Vind: VSV 2.6 m/s
Vind: VSV 2.6 m/s
Temperatur: 18°C
Duggpunkt: 13°C
Fuktighet: 73%
Barometer: 1022 hPa
Skyer: For det meste skyet
Sikt: More than 10 km
Skydetaljer: få skyer 1097.3 m,
For det meste skyet 2194.6 m
ENVA 241420Z 24005KT 9999 FEW036 BKN072 18/13 Q1022 RMK WIND 670FT VRB03KT
ENBR - Bergen
oppdatert: 24-08-2019 16:20
For det meste skyet  
For det meste skyet  
   Vind: Sør 8.2 m/s
Vind: Sør 8.2 m/s
Temperatur: 19°C
Duggpunkt: 15°C
Fuktighet: 78%
Barometer: 1022 hPa
Skyer: For det meste skyet
Sikt: More than 10 km
Skydetaljer: få skyer 883.9 m,
For det meste skyet 1097.3 m
ENBR 241420Z 17016KT 9999 FEW029 BKN036 19/15 Q1022 NOSIG RMK WIND 1200FT 16020KT
ENZV - Stavanger
oppdatert: 24-08-2019 16:20
Delvis Skyet  
Delvis Skyet  
   Vind: Sør 7.7 m/s
Vind: Sør 7.7 m/s
Temperatur: 22°C
Duggpunkt: 15°C
Fuktighet: 65%
Barometer: 1024 hPa
Skyer: Delvis Skyet
Sikt: More than 10 km
Skydetaljer: få skyer 762 m,
Delvis Skyet 3657.6 m
ENZV 241420Z 17015KT 9999 FEW025 SCT120 22/15 Q1024 NOSIG
ENGM - Oslo
oppdatert: 24-08-2019 16:20
Klart  
Klart  
   Vind: Sør 4.1 m/s
Vind: Sør 4.1 m/s
Temperatur: 21°C
Duggpunkt: 11°C
Fuktighet: 53%
Barometer: 1025 hPa
Sikt: More than 10 km
Skydetaljer: Klart
ENGM 241420Z 18008KT 150V220 CAVOK 21/11 Q1025 NOSIG
ESSA - Stockholm
oppdatert: 24-08-2019 16:20
få skyer  
få skyer  
   Vind: SSV 3.1 m/s
Vind: SSV 3.1 m/s
Temperatur: 21°C
Duggpunkt: 13°C
Fuktighet: 60%
Barometer: 1026 hPa
Skyer: få skyer
Sikt: More than 10 km
Skydetaljer: få skyer 1066.8 m
ESSA 241420Z 21006KT 160V240 9999 FEW035 21/13 Q1026 NOSIG
EKCH - København
oppdatert: 24-08-2019 16:20
Klart  
Klart  
   Vind: Nord 3.1 m/s
Vind: Nord 3.1 m/s
Temperatur: 23°C
Duggpunkt: 8°C
Fuktighet: 38%
Barometer: 1026 hPa
Skyer: Klart
Sikt: More than 10 km
Skydetaljer: Klart
EKCH 241420Z AUTO 01006KT 9999 NCD 23/08 Q1026 NOSIG
ENHV - Nordkapp
oppdatert: 23-08-2019 21:50
Ikkje oppdatert
For det meste skyet  
For det meste skyet  
   Vind: NNØ 3.6 m/s
Vind: NNØ 3.6 m/s
Temperatur: 9°C
Wind Chill: 7°C
Duggpunkt: 7°C
Fuktighet: 87%
Barometer: 1017 hPa
Skyer: For det meste skyet
Sikt: More than 10 km
Skydetaljer: Delvis Skyet 396.2 m,
For det meste skyet 701 m
ENHV 231950Z 03007KT 9999 SCT013 BKN023 09/07 Q1017
ENSB - Svalbard
oppdatert: 24-08-2019 15:50
For det meste skyet  
For det meste skyet  
   Vind: SV 4.1 m/s
Vind: SV 4.1 m/s
Temperatur: 5°C
Wind Chill: 2°C
Duggpunkt: 0°C
Fuktighet: 70%
Barometer: 1020 hPa
Skyer: For det meste skyet
Sikt: More than 10 km
Skydetaljer: få skyer 609.6 m,
For det meste skyet 762 m
ENSB 241350Z 23008KT 200V260 9999 FEW020 BKN025 05/00 Q1020 RMK WIND 1400FT 23010KT
NZSP - Sørpolen
oppdatert: 24-08-2019 07:50
Ikkje oppdatert
Dis, få skyer  
Dis, få skyer  
   Vind: NNØ 4.6 m/s
Vind: NNØ 4.6 m/s
Temperatur: -56°C
Wind Chill: -74°C
Barometer: 966.1 hPa
Skyer: få skyer
Sikt: 3.2 km
Skydetaljer: få skyer 487.7 m,
få skyer 2590.8 m
NZSP 240550Z 03009KT 3200 BR FEW016 FEW085 M56/ A2853 RMK CLN AIR 02010KT ALL WNDS GRID
 

Script utviklet av  Saratoga-weather.org Tilrettelagt for malen av  Weerstation Leuven

Utstyr vi bruker:

Værstsjon
Davis VP2+ 24/H Fars, Online-Ups, 4G Backup.

Værprogram
Weather Display

Ekstra utstyr
Custom builds pcs

Provider
Hosted By Pro Isp

Davis VP2+ 24/H Fars, Online-Ups, 4G Backup.

Weather Display

Custom builds pcs

Hosted By Pro Isp